createdAt,value
2023-01-17T00:02:20.995Z,8.08
2023-01-17T00:05:12.351Z,8.04
2023-01-17T00:07:58.692Z,8.05
2023-01-17T00:10:28.301Z,8.01
2023-01-17T00:13:03.882Z,7.97
2023-01-17T00:15:32.447Z,7.96
2023-01-17T00:18:00.463Z,8.01
2023-01-17T00:20:50.973Z,7.98
2023-01-17T00:23:40.973Z,7.95
2023-01-17T00:26:14.912Z,7.94
2023-01-17T00:28:43.818Z,7.97
2023-01-17T00:31:13.868Z,7.97
2023-01-17T00:33:41.996Z,7.97
2023-01-17T00:36:10.899Z,7.95
2023-01-17T00:38:40.424Z,7.91
2023-01-17T00:41:11.281Z,7.90
2023-01-17T00:43:58.094Z,7.88
2023-01-17T00:46:44.590Z,7.84
2023-01-17T00:49:31.264Z,7.80
2023-01-17T00:52:18.095Z,7.77
2023-01-17T00:55:04.752Z,7.82
2023-01-17T00:57:51.587Z,7.81
2023-01-17T01:00:38.146Z,7.80
2023-01-17T01:03:28.659Z,7.79
2023-01-17T01:06:15.500Z,7.80
2023-01-17T01:09:02.524Z,7.81
2023-01-17T01:11:48.770Z,7.81
2023-01-17T01:14:35.452Z,7.82
2023-01-17T01:17:22.459Z,7.83
2023-01-17T01:20:09.165Z,7.82
2023-01-17T01:22:55.765Z,7.82
2023-01-17T01:25:42.486Z,7.82
2023-01-17T01:28:31.912Z,7.82
2023-01-17T01:31:22.488Z,7.82
2023-01-17T01:33:52.271Z,7.82
2023-01-17T01:36:21.162Z,7.84
2023-01-17T01:38:50.432Z,7.87
2023-01-17T01:41:18.503Z,7.84
2023-01-17T01:43:52.891Z,7.81
2023-01-17T01:46:24.107Z,7.77
2023-01-17T01:48:58.945Z,7.72
2023-01-17T01:51:33.464Z,7.71
2023-01-17T01:54:08.199Z,7.71
2023-01-17T01:56:37.657Z,7.71
2023-01-17T01:59:10.530Z,7.73
2023-01-17T02:01:38.761Z,7.73
2023-01-17T02:04:12.077Z,7.71
2023-01-17T02:06:46.014Z,7.72
2023-01-17T02:09:17.142Z,7.79
2023-01-17T02:11:47.445Z,7.86
2023-01-17T02:14:21.061Z,7.84
2023-01-17T02:17:12.258Z,7.81
2023-01-17T02:19:51.963Z,7.83
2023-01-17T02:22:57.313Z,7.81
2023-01-17T02:25:57.091Z,7.84
2023-01-17T02:28:50.261Z,7.80
2023-01-17T02:31:23.344Z,7.75
2023-01-17T02:34:00.524Z,7.72
2023-01-17T02:36:46.586Z,7.69
2023-01-17T02:39:22.864Z,7.65
2023-01-17T02:42:04.777Z,7.62
2023-01-17T02:44:41.939Z,7.60
2023-01-17T02:47:28.301Z,7.60
2023-01-17T02:50:05.427Z,7.62
2023-01-17T02:53:02.515Z,7.64
2023-01-17T02:55:39.344Z,7.65
2023-01-17T02:58:19.340Z,7.64
2023-01-17T03:00:58.018Z,7.62
2023-01-17T03:03:34.480Z,7.63
2023-01-17T03:06:11.820Z,7.61
2023-01-17T03:08:43.419Z,7.58
2023-01-17T03:11:12.615Z,7.58
2023-01-17T03:13:41.342Z,7.58
2023-01-17T03:16:20.751Z,7.60
2023-01-17T03:18:49.400Z,7.66
2023-01-17T03:21:17.642Z,7.64
2023-01-17T03:23:45.760Z,7.64
2023-01-17T03:26:13.863Z,7.60
2023-01-17T03:28:41.902Z,7.62
2023-01-17T03:31:09.933Z,7.66
2023-01-17T03:33:37.837Z,7.71
2023-01-17T03:36:05.961Z,7.75
2023-01-17T03:38:33.880Z,7.77
2023-01-17T03:41:01.768Z,7.84
2023-01-17T03:43:29.771Z,7.91
2023-01-17T03:46:07.053Z,7.94
2023-01-17T03:48:35.004Z,7.97
2023-01-17T03:51:03.059Z,7.96
2023-01-17T03:53:30.908Z,7.99
2023-01-17T03:55:58.909Z,7.99
2023-01-17T03:58:26.738Z,7.99
2023-01-17T04:00:54.728Z,7.98
2023-01-17T04:03:22.645Z,7.98
2023-01-17T04:05:50.707Z,7.98
2023-01-17T04:08:18.911Z,8.00
2023-01-17T04:10:46.826Z,8.03
2023-01-17T04:13:16.792Z,8.02
2023-01-17T04:15:46.111Z,8.04
2023-01-17T04:18:14.113Z,8.04
2023-01-17T04:20:42.253Z,8.03
2023-01-17T04:23:10.454Z,8.04
2023-01-17T04:25:38.453Z,8.07
2023-01-17T04:28:06.555Z,8.08
2023-01-17T04:30:34.590Z,8.11
2023-01-17T04:33:03.071Z,8.15
2023-01-17T04:35:31.778Z,8.21
2023-01-17T04:37:59.938Z,8.23
2023-01-17T04:40:29.600Z,8.25
2023-01-17T04:42:58.037Z,8.24
2023-01-17T04:45:26.259Z,8.22
2023-01-17T04:47:54.095Z,8.20
2023-01-17T04:50:21.962Z,8.16
2023-01-17T04:52:49.900Z,8.12
2023-01-17T04:55:17.986Z,8.12
2023-01-17T04:57:45.864Z,8.10
2023-01-17T05:00:14.321Z,8.08
2023-01-17T05:02:42.355Z,8.06
2023-01-17T05:05:10.848Z,8.03
2023-01-17T05:07:39.200Z,8.00
2023-01-17T05:10:07.604Z,7.97
2023-01-17T05:12:35.467Z,7.94
2023-01-17T05:15:03.637Z,7.90
2023-01-17T05:17:31.569Z,7.89
2023-01-17T05:19:59.557Z,7.85
2023-01-17T05:22:27.404Z,7.88
2023-01-17T05:24:55.422Z,7.85
2023-01-17T05:27:25.817Z,7.83
2023-01-17T05:29:53.754Z,7.84
2023-01-17T05:32:21.753Z,7.85
2023-01-17T05:34:51.195Z,7.77
2023-01-17T05:37:19.198Z,7.75
2023-01-17T05:39:47.087Z,7.75
2023-01-17T05:42:15.431Z,7.76
2023-01-17T05:44:46.353Z,7.71
2023-01-17T05:47:15.357Z,7.63
2023-01-17T05:49:45.895Z,7.60
2023-01-17T05:52:14.315Z,7.58
2023-01-17T05:54:42.199Z,7.51
2023-01-17T05:57:10.222Z,7.46
2023-01-17T05:59:38.086Z,7.47
2023-01-17T06:02:06.079Z,7.41
2023-01-17T06:04:34.066Z,7.37
2023-01-17T06:07:02.226Z,7.35
2023-01-17T06:09:30.265Z,7.35
2023-01-17T06:11:58.141Z,7.35
2023-01-17T06:14:26.107Z,7.37
2023-01-17T06:16:54.274Z,7.35
2023-01-17T06:19:22.218Z,7.37
2023-01-17T06:21:50.758Z,7.35
2023-01-17T06:24:18.920Z,7.36
2023-01-17T06:26:48.687Z,7.43
2023-01-17T06:29:17.764Z,7.42
2023-01-17T06:31:45.734Z,7.44
2023-01-17T06:34:13.625Z,7.44
2023-01-17T06:36:41.815Z,7.48
2023-01-17T06:39:10.995Z,7.44
2023-01-17T06:41:38.946Z,7.46
2023-01-17T06:44:08.033Z,7.46
2023-01-17T06:46:36.364Z,7.49
2023-01-17T06:49:04.332Z,7.57
2023-01-17T06:51:32.485Z,7.57
2023-01-17T06:54:01.341Z,7.57
2023-01-17T06:56:33.434Z,7.54
2023-01-17T06:59:01.334Z,7.53
2023-01-17T07:01:29.648Z,7.51
2023-01-17T07:03:58.132Z,7.53
2023-01-17T07:06:28.857Z,7.49
2023-01-17T07:08:56.971Z,7.51
2023-01-17T07:11:25.050Z,7.47
2023-01-17T07:13:53.133Z,7.44
2023-01-17T07:16:21.103Z,7.45
2023-01-17T07:18:49.800Z,7.47
2023-01-17T07:21:17.712Z,7.48
2023-01-17T07:23:45.591Z,7.52
2023-01-17T07:26:13.603Z,7.56
2023-01-17T07:28:41.492Z,7.57
2023-01-17T07:31:09.366Z,7.59
2023-01-17T07:33:37.320Z,7.56
2023-01-17T07:36:07.454Z,7.53
2023-01-17T07:38:35.791Z,7.55
2023-01-17T07:41:03.898Z,7.56
2023-01-17T07:43:31.939Z,7.56
2023-01-17T07:46:02.120Z,7.54
2023-01-17T07:48:30.620Z,7.55
2023-01-17T07:50:58.811Z,7.60
2023-01-17T07:53:29.033Z,7.61
2023-01-17T07:56:02.726Z,7.62
2023-01-17T07:58:32.136Z,7.68
2023-01-17T08:01:09.319Z,7.73
2023-01-17T08:03:40.169Z,7.78
2023-01-17T08:06:22.157Z,7.77
2023-01-17T08:08:50.896Z,7.81
2023-01-17T08:11:18.985Z,7.79
2023-01-17T08:13:46.946Z,7.81
2023-01-17T08:16:15.485Z,7.81
2023-01-17T08:18:43.514Z,7.82
2023-01-17T08:21:15.247Z,7.86
2023-01-17T08:23:47.380Z,7.90
2023-01-17T08:26:21.421Z,7.97
2023-01-17T08:28:55.891Z,8.03
2023-01-17T08:31:24.872Z,8.05
2023-01-17T08:33:52.920Z,8.05
2023-01-17T08:36:20.843Z,8.02
2023-01-17T08:38:52.869Z,8.00
2023-01-17T08:41:23.250Z,7.96
2023-01-17T08:43:52.155Z,7.96
2023-01-17T08:46:20.139Z,7.95
2023-01-17T08:48:48.144Z,7.96
2023-01-17T08:51:16.249Z,8.01
2023-01-17T08:53:44.099Z,8.00
2023-01-17T08:56:12.115Z,7.97
2023-01-17T08:58:41.482Z,8.01
2023-01-17T09:01:09.580Z,8.03
2023-01-17T09:03:40.771Z,8.05
2023-01-17T09:06:14.050Z,8.04
2023-01-17T09:08:47.121Z,8.05
2023-01-17T09:11:17.397Z,8.05
2023-01-17T09:13:45.444Z,8.11
2023-01-17T09:16:13.542Z,8.14
2023-01-17T09:18:41.529Z,8.15
2023-01-17T09:21:17.577Z,8.24
2023-01-17T09:23:46.215Z,8.24
2023-01-17T09:26:40.472Z,8.27
2023-01-17T09:29:08.411Z,8.31
2023-01-17T09:31:36.389Z,8.33
2023-01-17T09:34:04.502Z,8.30
2023-01-17T09:36:34.077Z,8.29
2023-01-17T09:39:03.646Z,8.31
2023-01-17T09:41:34.756Z,8.31
2023-01-17T09:44:02.630Z,8.34
2023-01-17T09:46:33.782Z,8.33
2023-01-17T09:49:28.060Z,8.33
2023-01-17T09:51:56.066Z,8.32
2023-01-17T09:54:27.768Z,8.28
2023-01-17T09:57:10.727Z,8.29
2023-01-17T10:00:03.312Z,8.31
2023-01-17T10:02:56.199Z,8.37
2023-01-17T10:05:58.091Z,8.41
2023-01-17T10:08:57.556Z,8.45
2023-01-17T10:11:44.046Z,8.49
2023-01-17T10:14:11.970Z,8.49
2023-01-17T10:17:10.033Z,8.51
2023-01-17T10:20:05.365Z,8.58
2023-01-17T10:22:51.426Z,8.60
2023-01-17T10:25:39.703Z,8.63
2023-01-17T10:28:32.794Z,8.72
2023-01-17T10:31:08.025Z,8.81
2023-01-17T10:33:44.664Z,8.86
2023-01-17T10:36:20.558Z,8.94
2023-01-17T10:38:53.224Z,8.98
2023-01-17T10:41:38.357Z,8.95
2023-01-17T10:44:19.718Z,8.99
2023-01-17T10:46:54.543Z,9.00
2023-01-17T10:49:25.267Z,9.01
2023-01-17T10:51:59.883Z,8.98
2023-01-17T10:54:46.619Z,9.00
2023-01-17T10:57:27.310Z,8.98
2023-01-17T11:00:00.721Z,8.97
2023-01-17T11:02:36.891Z,8.98
2023-01-17T11:05:20.486Z,8.98
2023-01-17T11:08:04.313Z,9.03
2023-01-17T11:10:40.307Z,8.96
2023-01-17T11:13:27.345Z,8.96
2023-01-17T11:16:02.282Z,8.98
2023-01-17T11:18:33.371Z,8.96
2023-01-17T11:21:12.387Z,8.98
2023-01-17T11:23:52.761Z,8.94
2023-01-17T11:26:32.880Z,8.97
2023-01-17T11:29:34.646Z,8.96
2023-01-17T11:32:33.974Z,8.94
2023-01-17T11:35:22.572Z,8.95
2023-01-17T11:38:03.306Z,8.92
2023-01-17T11:40:43.462Z,8.90
2023-01-17T11:43:11.486Z,8.85
2023-01-17T11:45:41.082Z,8.84
2023-01-17T11:48:09.086Z,8.85
2023-01-17T11:50:44.074Z,8.90
2023-01-17T11:53:23.148Z,8.95
2023-01-17T11:55:59.572Z,8.97
2023-01-17T11:58:28.649Z,8.98
2023-01-17T12:01:10.151Z,8.98
2023-01-17T12:03:53.632Z,8.97
2023-01-17T12:07:06.591Z,9.00
2023-01-17T12:09:43.522Z,9.00
2023-01-17T12:12:53.018Z,9.02
2023-01-17T12:15:52.150Z,9.06
2023-01-17T12:18:47.275Z,9.07
2023-01-17T12:21:31.873Z,9.03
2023-01-17T12:24:21.121Z,9.06
2023-01-17T12:27:20.296Z,9.07
2023-01-17T12:30:03.486Z,9.06
2023-01-17T12:32:53.047Z,9.05
2023-01-17T12:35:38.834Z,9.03
2023-01-17T12:38:14.085Z,9.03
2023-01-17T12:40:51.259Z,9.07
2023-01-17T12:43:23.626Z,9.15
2023-01-17T12:45:54.781Z,9.22
2023-01-17T12:48:23.837Z,9.27
2023-01-17T12:50:51.744Z,9.28
2023-01-17T12:53:24.337Z,9.33
2023-01-17T12:56:09.243Z,9.39
2023-01-17T12:58:44.907Z,9.46
2023-01-17T13:01:25.572Z,9.50
2023-01-17T13:03:55.521Z,9.58
2023-01-17T13:06:36.132Z,9.60
2023-01-17T13:09:05.661Z,9.65
2023-01-17T13:11:46.681Z,9.68
2023-01-17T13:14:14.566Z,9.66
2023-01-17T13:16:57.135Z,9.66
2023-01-17T13:19:37.453Z,9.72
2023-01-17T13:22:09.209Z,9.73
2023-01-17T13:24:57.249Z,9.75
2023-01-17T13:27:38.199Z,9.77
2023-01-17T13:30:24.588Z,9.80
2023-01-17T13:33:28.502Z,9.81
2023-01-17T13:36:38.581Z,9.80
2023-01-17T13:39:44.160Z,9.79
2023-01-17T13:42:19.411Z,9.79
2023-01-17T13:44:47.640Z,9.72
2023-01-17T13:47:18.701Z,9.70
2023-01-17T13:49:51.604Z,9.69
2023-01-17T13:52:19.438Z,9.67
2023-01-17T13:54:49.873Z,9.67
2023-01-17T13:57:29.376Z,9.66
2023-01-17T14:00:23.487Z,9.71
2023-01-17T14:02:53.306Z,9.72
2023-01-17T14:05:31.552Z,9.74
2023-01-17T14:08:17.432Z,9.73
2023-01-17T14:10:50.522Z,9.76
2023-01-17T14:13:37.225Z,9.75
2023-01-17T14:16:26.833Z,9.72
2023-01-17T14:18:55.957Z,9.74
2023-01-17T14:21:33.607Z,9.72
2023-01-17T14:24:10.855Z,9.69
2023-01-17T14:27:19.194Z,9.68
2023-01-17T14:29:57.387Z,9.64
2023-01-17T14:32:35.346Z,9.62
2023-01-17T14:35:05.535Z,9.60
2023-01-17T14:37:33.393Z,9.61
2023-01-17T14:40:01.953Z,9.56
2023-01-17T14:42:31.805Z,9.54
2023-01-17T14:45:09.689Z,9.52
2023-01-17T14:47:39.434Z,9.49
2023-01-17T14:50:29.435Z,9.46
2023-01-17T14:53:15.697Z,9.44
2023-01-17T14:55:52.364Z,9.43
2023-01-17T14:58:20.334Z,9.39
2023-01-17T15:00:50.802Z,9.37
2023-01-17T15:03:19.171Z,9.37
2023-01-17T15:05:49.934Z,9.37
2023-01-17T15:08:20.505Z,9.37
2023-01-17T15:11:03.188Z,9.36
2023-01-17T15:13:44.220Z,9.36
2023-01-17T15:16:28.517Z,9.36
2023-01-17T15:18:57.546Z,9.35
2023-01-17T15:21:32.390Z,9.34
2023-01-17T15:24:04.800Z,9.35
2023-01-17T15:26:42.329Z,9.34
2023-01-17T15:29:18.775Z,9.34
2023-01-17T15:31:58.279Z,9.34
2023-01-17T15:34:44.120Z,9.35
2023-01-17T15:37:34.660Z,9.34
2023-01-17T15:40:16.901Z,9.30
2023-01-17T15:42:49.025Z,9.28
2023-01-17T15:45:20.387Z,9.26
2023-01-17T15:47:49.056Z,9.24
2023-01-17T15:50:19.727Z,9.20
2023-01-17T15:52:55.132Z,9.14
2023-01-17T15:55:30.243Z,9.10
2023-01-17T15:57:58.443Z,9.05
2023-01-17T16:00:38.392Z,8.98
2023-01-17T16:03:31.770Z,8.91
2023-01-17T16:06:02.932Z,8.84
2023-01-17T16:08:33.862Z,8.83
2023-01-17T16:11:06.213Z,8.81
2023-01-17T16:13:38.682Z,8.79
2023-01-17T16:16:15.784Z,8.75
2023-01-17T16:18:46.573Z,8.75
2023-01-17T16:21:19.899Z,8.72
2023-01-17T16:23:48.478Z,8.69
2023-01-17T16:26:16.854Z,8.67
2023-01-17T16:28:46.047Z,8.65
2023-01-17T16:31:14.496Z,8.63
2023-01-17T16:33:42.613Z,8.61
2023-01-17T16:36:14.742Z,8.57
2023-01-17T16:38:44.727Z,8.53
2023-01-17T16:41:13.242Z,8.47
2023-01-17T16:43:41.635Z,8.43
2023-01-17T16:46:12.001Z,8.39
2023-01-17T16:48:40.087Z,8.37
2023-01-17T16:51:08.467Z,8.37
2023-01-17T16:53:37.616Z,8.37
2023-01-17T16:56:10.251Z,8.34
2023-01-17T16:58:38.221Z,8.31
2023-01-17T17:01:16.594Z,8.33
2023-01-17T17:03:48.558Z,8.35
2023-01-17T17:06:22.577Z,8.37
2023-01-17T17:08:50.659Z,8.40
2023-01-17T17:11:22.034Z,8.40
2023-01-17T17:13:54.181Z,8.41
2023-01-17T17:16:26.624Z,8.40
2023-01-17T17:18:57.405Z,8.40
2023-01-17T17:21:26.398Z,8.36
2023-01-17T17:23:57.126Z,8.31
2023-01-17T17:26:34.234Z,8.27
2023-01-17T17:29:04.082Z,8.23
2023-01-17T17:31:32.410Z,8.24
2023-01-17T17:34:02.259Z,8.20
2023-01-17T17:36:30.977Z,8.15
2023-01-17T17:38:59.490Z,8.10
2023-01-17T17:41:29.452Z,8.04
2023-01-17T17:43:59.644Z,8.01
2023-01-17T17:46:29.283Z,7.95
2023-01-17T17:48:58.332Z,7.96
2023-01-17T17:51:32.566Z,7.94
2023-01-17T17:54:03.643Z,7.88
2023-01-17T17:56:32.304Z,7.81
2023-01-17T17:59:01.816Z,7.73
2023-01-17T18:01:30.090Z,7.70
2023-01-17T18:04:02.512Z,7.66
2023-01-17T18:06:30.687Z,7.65
2023-01-17T18:08:58.634Z,7.63
2023-01-17T18:11:27.622Z,7.62
2023-01-17T18:13:59.996Z,7.62
2023-01-17T18:16:30.925Z,7.61
2023-01-17T18:18:59.742Z,7.61
2023-01-17T18:21:30.931Z,7.61
2023-01-17T18:24:10.917Z,7.59
2023-01-17T18:26:44.923Z,7.56
2023-01-17T18:29:16.116Z,7.54
2023-01-17T18:31:45.146Z,7.51
2023-01-17T18:34:16.107Z,7.54
2023-01-17T18:36:44.068Z,7.53
2023-01-17T18:39:17.839Z,7.52
2023-01-17T18:41:46.307Z,7.53
2023-01-17T18:44:15.433Z,7.55
2023-01-17T18:46:43.521Z,7.56
2023-01-17T18:49:13.112Z,7.55
2023-01-17T18:51:42.829Z,7.54
2023-01-17T18:54:11.097Z,7.51
2023-01-17T18:56:39.279Z,7.48
2023-01-17T18:59:07.334Z,7.44
2023-01-17T19:01:36.361Z,7.43
2023-01-17T19:04:06.020Z,7.43
2023-01-17T19:06:42.899Z,7.39
2023-01-17T19:09:12.516Z,7.40
2023-01-17T19:11:43.098Z,7.38
2023-01-17T19:14:12.446Z,7.38
2023-01-17T19:16:41.864Z,7.37
2023-01-17T19:19:14.267Z,7.36
2023-01-17T19:21:43.146Z,7.34
2023-01-17T19:24:13.538Z,7.34
2023-01-17T19:26:43.313Z,7.38
2023-01-17T19:29:12.295Z,7.40
2023-01-17T19:31:43.144Z,7.40
2023-01-17T19:34:13.913Z,7.43
2023-01-17T19:36:42.823Z,7.45
2023-01-17T19:39:10.984Z,7.47
2023-01-17T19:41:44.989Z,7.50
2023-01-17T19:44:14.646Z,7.53
2023-01-17T19:46:44.010Z,7.58
2023-01-17T19:49:12.250Z,7.63
2023-01-17T19:51:40.437Z,7.72
2023-01-17T19:54:08.962Z,7.82
2023-01-17T19:56:36.950Z,7.92
2023-01-17T19:59:05.086Z,8.00
2023-01-17T20:01:34.519Z,8.14
2023-01-17T20:04:04.162Z,8.24
2023-01-17T20:06:35.676Z,8.33
2023-01-17T20:09:05.183Z,8.41
2023-01-17T20:11:36.491Z,8.48
2023-01-17T20:14:07.739Z,8.60
2023-01-17T20:16:37.226Z,8.70
2023-01-17T20:19:05.821Z,8.80
2023-01-17T20:21:34.544Z,8.88
2023-01-17T20:24:05.422Z,8.94
2023-01-17T20:26:35.166Z,9.00
2023-01-17T20:29:10.249Z,9.05
2023-01-17T20:31:40.528Z,9.12
2023-01-17T20:34:11.692Z,9.21
2023-01-17T20:36:41.629Z,9.28
2023-01-17T20:39:14.977Z,9.34
2023-01-17T20:41:51.527Z,9.38
2023-01-17T20:44:19.674Z,9.46
2023-01-17T20:46:49.422Z,9.51
2023-01-17T20:49:19.634Z,9.54
2023-01-17T20:51:48.524Z,9.58
2023-01-17T20:54:19.721Z,9.63
2023-01-17T20:56:47.982Z,9.67
2023-01-17T20:59:22.368Z,9.71
2023-01-17T21:01:50.812Z,9.76
2023-01-17T21:04:25.695Z,9.80
2023-01-17T21:06:54.818Z,9.84
2023-01-17T21:09:22.913Z,9.88
2023-01-17T21:11:52.191Z,9.93
2023-01-17T21:14:21.781Z,9.97
2023-01-17T21:16:50.440Z,9.98
2023-01-17T21:19:20.445Z,10.04
2023-01-17T21:21:50.026Z,10.09
2023-01-17T21:24:19.731Z,10.15
2023-01-17T21:26:49.822Z,10.20
2023-01-17T21:29:17.944Z,10.22
2023-01-17T21:31:46.412Z,10.25
2023-01-17T21:34:14.628Z,10.29
2023-01-17T21:36:43.016Z,10.33
2023-01-17T21:39:15.749Z,10.38
2023-01-17T21:41:46.334Z,10.40
2023-01-17T21:44:23.765Z,10.45
2023-01-17T21:46:54.215Z,10.54
2023-01-17T21:49:24.589Z,10.62
2023-01-17T21:51:52.742Z,10.66
2023-01-17T21:54:42.100Z,10.72
2023-01-17T21:57:29.616Z,10.76
2023-01-17T21:59:57.747Z,10.78
2023-01-17T22:02:25.757Z,10.79
2023-01-17T22:04:56.851Z,10.81
2023-01-17T22:07:27.164Z,10.82
2023-01-17T22:09:56.404Z,10.83
2023-01-17T22:12:24.570Z,10.88
2023-01-17T22:14:52.760Z,10.92
2023-01-17T22:17:21.149Z,10.95
2023-01-17T22:19:49.183Z,11.01
2023-01-17T22:22:17.145Z,11.07
2023-01-17T22:24:45.117Z,11.10
2023-01-17T22:27:13.729Z,11.12
2023-01-17T22:29:41.695Z,11.12
2023-01-17T22:32:09.601Z,11.13
2023-01-17T22:34:37.419Z,11.13
2023-01-17T22:37:10.217Z,11.11
2023-01-17T22:39:39.144Z,11.10
2023-01-17T22:42:07.252Z,11.11
2023-01-17T22:44:35.163Z,11.13
2023-01-17T22:47:03.330Z,11.15
2023-01-17T22:49:31.211Z,11.14
2023-01-17T22:51:59.113Z,11.14
2023-01-17T22:54:26.856Z,11.12
2023-01-17T22:56:54.780Z,11.13
2023-01-17T22:59:24.176Z,11.16
2023-01-17T23:01:53.790Z,11.22
2023-01-17T23:04:22.362Z,11.23
2023-01-17T23:06:50.730Z,11.26
2023-01-17T23:09:18.809Z,11.30
2023-01-17T23:11:52.084Z,11.34
2023-01-17T23:14:30.755Z,11.40
2023-01-17T23:17:20.671Z,11.47
2023-01-17T23:19:54.773Z,11.46
2023-01-17T23:22:28.302Z,11.45
2023-01-17T23:24:59.314Z,11.44
2023-01-17T23:28:00.809Z,11.42
2023-01-17T23:30:34.785Z,11.38
2023-01-17T23:33:07.177Z,11.35
2023-01-17T23:35:41.742Z,11.31
2023-01-17T23:38:26.339Z,11.26
2023-01-17T23:41:21.123Z,11.24
2023-01-17T23:43:57.245Z,11.21
2023-01-17T23:46:26.935Z,11.18
2023-01-17T23:48:55.366Z,11.16
2023-01-17T23:51:23.407Z,11.18
2023-01-17T23:53:57.584Z,11.20
2023-01-17T23:56:25.570Z,11.21
2023-01-17T23:58:53.747Z,11.21
